createdAt,value
2023-02-02T00:01:54.895Z,100282.88
2023-02-02T00:04:26.015Z,100288.97
2023-02-02T00:06:57.187Z,100288.09
2023-02-02T00:09:29.087Z,100297.91
2023-02-02T00:12:00.991Z,100303.41
2023-02-02T00:14:29.541Z,100301.41
2023-02-02T00:16:59.076Z,100309.41
2023-02-02T00:19:30.286Z,100315.97
2023-02-02T00:21:59.527Z,100326.28
2023-02-02T00:24:28.333Z,100337.53
2023-02-02T00:27:00.708Z,100330.28
2023-02-02T00:29:32.451Z,100349.44
2023-02-02T00:32:01.009Z,100349.56
2023-02-02T00:34:29.436Z,100341.69
2023-02-02T00:36:57.903Z,100353.19
2023-02-02T00:39:27.534Z,100357.84
2023-02-02T00:41:56.247Z,100371.34
2023-02-02T00:44:43.887Z,100370.59
2023-02-02T00:47:12.474Z,100357.59
2023-02-02T00:49:40.952Z,100369.47
2023-02-02T00:52:09.450Z,100384.50
2023-02-02T00:54:37.862Z,100385.91
2023-02-02T00:57:06.455Z,100386.78
2023-02-02T00:59:36.233Z,100398.75
2023-02-02T01:02:04.659Z,100409.28
2023-02-02T01:04:33.145Z,100409.59
2023-02-02T01:07:01.639Z,100418.72
2023-02-02T01:09:30.327Z,100419.81
2023-02-02T01:11:59.356Z,100415.56
2023-02-02T01:14:28.419Z,100432.56
2023-02-02T01:16:58.639Z,100435.41
2023-02-02T01:19:30.124Z,100429.50
2023-02-02T01:21:58.766Z,100434.84
2023-02-02T01:24:27.447Z,100444.03
2023-02-02T01:26:55.969Z,100451.19
2023-02-02T01:29:24.621Z,100455.72
2023-02-02T01:31:53.250Z,100454.66
2023-02-02T01:34:23.389Z,100467.09
2023-02-02T01:36:51.880Z,100475.28
2023-02-02T01:39:20.585Z,100489.59
2023-02-02T01:41:49.401Z,100484.06
2023-02-02T01:45:21.148Z,100499.94
2023-02-02T01:47:54.073Z,100513.22
2023-02-02T01:50:29.838Z,100509.97
2023-02-02T01:53:03.399Z,100524.03
2023-02-02T01:55:35.892Z,100523.50
2023-02-02T01:58:08.840Z,100544.19
2023-02-02T02:00:38.021Z,100546.56
2023-02-02T02:03:12.520Z,100543.47
2023-02-02T02:05:48.105Z,100558.41
2023-02-02T02:08:20.716Z,100555.47
2023-02-02T02:10:49.303Z,100559.75
2023-02-02T02:13:19.409Z,100552.06
2023-02-02T02:16:17.476Z,100565.16
2023-02-02T02:18:59.144Z,100568.78
2023-02-02T02:22:12.190Z,100583.03
2023-02-02T02:25:40.105Z,100577.72
2023-02-02T02:28:59.465Z,100592.97
2023-02-02T02:32:01.342Z,100588.53
2023-02-02T02:34:49.188Z,100597.63
2023-02-02T02:37:30.837Z,100602.19
2023-02-02T02:40:11.275Z,100613.59
2023-02-02T02:42:46.681Z,100615.31
2023-02-02T02:45:16.144Z,100623.56
2023-02-02T02:47:46.370Z,100626.03
2023-02-02T02:50:14.930Z,100628.69
2023-02-02T02:52:43.793Z,100636.59
2023-02-02T02:55:13.863Z,100643.44
2023-02-02T02:58:08.541Z,100640.00
2023-02-02T03:01:03.823Z,100648.75
2023-02-02T05:19:49.656Z,100842.00
2023-02-02T05:22:18.573Z,100849.81
2023-02-02T05:24:47.316Z,100843.81
2023-02-02T05:27:15.876Z,100847.94
2023-02-02T05:29:44.215Z,100858.59
2023-02-02T05:32:12.565Z,100856.63
2023-02-02T05:34:40.955Z,100846.84
2023-02-02T05:37:10.762Z,100863.66
2023-02-02T05:39:39.148Z,100866.16
2023-02-02T05:42:07.644Z,100872.19
2023-02-02T05:44:35.983Z,100863.94
2023-02-02T05:47:04.313Z,100870.03
2023-02-02T05:49:32.738Z,100872.84
2023-02-02T05:52:01.620Z,100874.56
2023-02-02T05:54:31.286Z,100874.66
2023-02-02T05:57:01.313Z,100881.69
2023-02-02T05:59:29.600Z,100881.69
2023-02-02T06:01:57.965Z,100893.34
2023-02-02T06:04:26.269Z,100896.00
2023-02-02T06:06:54.677Z,100909.28
2023-02-02T06:09:23.816Z,100906.22
2023-02-02T06:11:53.509Z,100903.22
2023-02-02T06:14:22.862Z,100906.50
2023-02-02T06:16:51.421Z,100914.41
2023-02-02T06:19:21.020Z,100920.72
2023-02-02T06:21:49.453Z,100921.22
2023-02-02T06:24:18.464Z,100939.13
2023-02-02T06:26:48.518Z,100930.78
2023-02-02T06:29:19.451Z,100930.88
2023-02-02T06:31:48.074Z,100948.16
2023-02-02T06:34:17.600Z,100945.50
2023-02-02T06:36:45.932Z,100958.59
2023-02-02T06:39:14.248Z,100969.84
2023-02-02T06:41:44.828Z,100959.16
2023-02-02T06:44:17.211Z,100966.88
2023-02-02T06:46:46.898Z,100965.00
2023-02-02T06:49:15.297Z,100972.78
2023-02-02T06:51:43.669Z,100982.44
2023-02-02T06:54:12.113Z,100983.69
2023-02-02T06:56:40.552Z,100988.31
2023-02-02T06:59:09.284Z,100999.09
2023-02-02T07:01:37.880Z,101003.19
2023-02-02T07:04:07.614Z,101010.63
2023-02-02T07:06:36.010Z,101020.03
2023-02-02T07:09:04.409Z,101013.19
2023-02-02T07:11:37.365Z,101019.53
2023-02-02T07:14:11.219Z,101020.53
2023-02-02T07:16:39.592Z,101029.44
2023-02-02T07:19:09.703Z,101032.81
2023-02-02T07:21:38.009Z,101034.44
2023-02-02T07:24:08.339Z,101049.41
2023-02-02T07:26:37.210Z,101046.34
2023-02-02T07:29:06.719Z,101051.38
2023-02-02T07:31:36.814Z,101061.69
2023-02-02T07:34:05.817Z,101053.00
2023-02-02T07:36:35.671Z,101059.88
2023-02-02T07:39:07.820Z,101068.84
2023-02-02T07:41:37.788Z,101071.38
2023-02-02T07:44:07.339Z,101078.25
2023-02-02T07:46:35.766Z,101086.16
2023-02-02T07:49:06.145Z,101087.94
2023-02-02T07:51:38.038Z,101094.22
2023-02-02T07:54:07.982Z,101093.59
2023-02-02T07:56:36.672Z,101099.84
2023-02-02T07:59:05.782Z,101099.84
2023-02-02T08:01:34.458Z,101103.38
2023-02-02T08:04:03.501Z,101110.47
2023-02-02T08:06:35.865Z,101110.66
2023-02-02T08:09:08.783Z,101122.22
2023-02-02T08:11:41.794Z,101136.44
2023-02-02T08:14:13.936Z,101149.75
2023-02-02T08:16:42.235Z,101157.34
2023-02-02T08:19:11.960Z,101167.91
2023-02-02T08:21:41.663Z,101161.44
2023-02-02T08:24:10.221Z,101167.28
2023-02-02T08:26:38.666Z,101166.50
2023-02-02T08:29:09.335Z,101171.81
2023-02-02T08:31:41.919Z,101172.63
2023-02-02T08:34:11.825Z,101176.75
2023-02-02T08:36:42.211Z,101190.91
2023-02-02T08:39:14.489Z,101177.44
2023-02-02T08:41:42.984Z,101176.38
2023-02-02T08:44:15.629Z,101171.72
2023-02-02T08:46:43.882Z,101175.13
2023-02-02T08:49:13.859Z,101173.69
2023-02-02T08:51:43.773Z,101168.44
2023-02-02T08:54:12.239Z,101194.69
2023-02-02T08:56:40.571Z,101196.16
2023-02-02T08:59:09.080Z,101197.38
2023-02-02T09:01:37.558Z,101202.91
2023-02-02T09:04:10.299Z,101208.88
2023-02-02T09:06:43.878Z,101210.47
2023-02-02T09:09:16.269Z,101213.44
2023-02-02T09:11:46.145Z,101223.03
2023-02-02T09:14:15.882Z,101226.63
2023-02-02T09:16:44.459Z,101236.47
2023-02-02T09:19:13.507Z,101236.66
2023-02-02T09:21:43.496Z,101241.94
2023-02-02T09:24:15.153Z,101250.91
2023-02-02T09:26:45.508Z,101251.50
2023-02-02T09:29:19.331Z,101261.28
2023-02-02T09:31:48.203Z,101260.72
2023-02-02T09:34:18.542Z,101262.41
2023-02-02T09:36:48.559Z,101276.28
2023-02-02T09:39:18.562Z,101282.84
2023-02-02T09:42:33.257Z,101283.47
2023-02-02T09:45:09.622Z,101297.19
2023-02-02T09:47:55.683Z,101284.25
2023-02-02T09:50:49.509Z,101278.25
2023-02-02T09:53:28.931Z,101291.94
2023-02-02T09:56:01.625Z,101295.94
2023-02-02T09:58:35.921Z,101298.56
2023-02-02T10:01:10.995Z,101293.56
2023-02-02T10:03:49.216Z,101297.00
2023-02-02T10:06:33.921Z,101304.41
2023-02-02T10:09:22.720Z,101314.03
2023-02-02T10:11:59.407Z,101317.38
2023-02-02T10:14:34.687Z,101324.72
2023-02-02T10:17:27.431Z,101331.06
2023-02-02T10:20:05.057Z,101340.69
2023-02-02T10:22:35.828Z,101349.06
2023-02-02T10:25:06.483Z,101348.28
2023-02-02T10:27:40.268Z,101365.03
2023-02-02T10:30:22.852Z,101366.69
2023-02-02T10:33:07.037Z,101376.09
2023-02-02T10:35:48.288Z,101382.06
2023-02-02T10:38:28.345Z,101369.53
2023-02-02T10:41:13.655Z,101380.97
2023-02-02T10:44:07.451Z,101389.91
2023-02-02T10:46:42.917Z,101386.47
2023-02-02T10:49:27.194Z,101409.50
2023-02-02T10:52:05.611Z,101421.50
2023-02-02T10:54:57.248Z,101436.09
2023-02-02T10:57:50.375Z,101435.38
2023-02-02T11:00:26.919Z,101447.06
2023-02-02T11:02:56.182Z,101431.38
2023-02-02T11:05:48.140Z,101435.97
2023-02-02T11:08:21.103Z,101443.03
2023-02-02T11:10:55.751Z,101430.78
2023-02-02T11:13:33.520Z,101441.84
2023-02-02T11:16:42.227Z,101445.84
2023-02-02T11:19:30.460Z,101450.63
2023-02-02T11:22:02.147Z,101472.53
2023-02-02T11:24:36.579Z,101464.06
2023-02-02T11:27:13.901Z,101464.53
2023-02-02T11:29:48.317Z,101463.03
2023-02-02T11:32:27.473Z,101482.28
2023-02-02T11:35:23.352Z,101487.47
2023-02-02T11:38:10.742Z,101487.91
2023-02-02T11:40:43.253Z,101479.25
2023-02-02T11:43:19.701Z,101477.84
2023-02-02T11:45:57.173Z,101484.75
2023-02-02T11:48:33.617Z,101483.28
2023-02-02T11:51:03.277Z,101486.88
2023-02-02T11:53:34.620Z,101467.09
2023-02-02T11:56:08.726Z,101478.00
2023-02-02T11:58:47.435Z,101475.00
2023-02-02T12:01:28.386Z,101479.56
2023-02-02T12:03:59.272Z,101476.69
2023-02-02T12:06:36.142Z,101479.06
2023-02-02T12:09:14.161Z,101480.31
2023-02-02T12:11:58.700Z,101478.28
2023-02-02T12:14:35.526Z,101474.16
2023-02-02T12:17:16.390Z,101472.22
2023-02-02T12:20:13.090Z,101480.72
2023-02-02T12:23:05.329Z,101483.03
2023-02-02T12:26:15.137Z,101481.34
2023-02-02T12:29:09.084Z,101494.53
2023-02-02T12:31:56.952Z,101498.03
2023-02-02T12:34:43.434Z,101502.66
2023-02-02T12:37:26.775Z,101505.53
2023-02-02T12:40:21.280Z,101515.91
2023-02-02T12:43:12.033Z,101524.59
2023-02-02T12:46:12.014Z,101518.03
2023-02-02T12:49:08.794Z,101515.66
2023-02-02T12:51:54.569Z,101516.16
2023-02-02T12:54:57.264Z,101521.69
2023-02-02T12:57:45.436Z,101526.03
2023-02-02T13:00:42.723Z,101531.44
2023-02-02T13:03:32.989Z,101531.88
2023-02-02T13:06:34.487Z,101531.81
2023-02-02T13:09:13.470Z,101558.34
2023-02-02T13:11:50.006Z,101558.84
2023-02-02T13:14:27.586Z,101558.59
2023-02-02T13:17:03.843Z,101566.44
2023-02-02T13:19:42.149Z,101566.19
2023-02-02T13:22:19.997Z,101582.50
2023-02-02T13:24:56.377Z,101581.06
2023-02-02T13:27:26.593Z,101594.25
2023-02-02T13:30:03.332Z,101587.22
2023-02-02T13:32:37.468Z,101586.81
2023-02-02T13:35:18.355Z,101591.34
2023-02-02T13:37:55.598Z,101596.59
2023-02-02T13:40:35.365Z,101607.03
2023-02-02T13:43:29.890Z,101609.69
2023-02-02T13:46:13.970Z,101610.69
2023-02-02T13:48:58.801Z,101602.69
2023-02-02T13:51:55.102Z,101605.97
2023-02-02T13:55:19.750Z,101607.19
2023-02-02T13:58:36.383Z,101612.09
2023-02-02T14:01:10.262Z,101618.59
2023-02-02T14:03:41.539Z,101619.91
2023-02-02T14:06:17.355Z,101614.22
2023-02-02T14:08:54.854Z,101629.50
2023-02-02T14:11:30.422Z,101626.22
2023-02-02T14:14:27.548Z,101636.16
2023-02-02T14:16:56.926Z,101639.63
2023-02-02T14:19:53.205Z,101642.22
2023-02-02T14:22:43.398Z,101644.00
2023-02-02T14:25:53.505Z,101655.31
2023-02-02T14:28:48.598Z,101649.06
2023-02-02T14:31:54.459Z,101658.78
2023-02-02T14:34:35.039Z,101669.19
2023-02-02T14:37:35.795Z,101659.22
2023-02-02T14:40:30.996Z,101671.53
2023-02-02T14:43:37.475Z,101672.16
2023-02-02T14:46:40.339Z,101678.94
2023-02-02T14:49:26.034Z,101682.91
2023-02-02T14:52:05.564Z,101686.13
2023-02-02T14:54:40.282Z,101678.25
2023-02-02T14:57:28.044Z,101688.31
2023-02-02T15:00:01.355Z,101689.88
2023-02-02T15:02:36.401Z,101695.31
2023-02-02T15:05:46.451Z,101704.75
2023-02-02T15:08:26.124Z,101706.03
2023-02-02T15:11:26.281Z,101703.13
2023-02-02T15:14:24.440Z,101717.25
2023-02-02T15:16:53.920Z,101724.97
2023-02-02T15:19:35.716Z,101723.16
2023-02-02T15:22:27.576Z,101731.81
2023-02-02T15:24:59.344Z,101730.69
2023-02-02T15:27:29.546Z,101730.25
2023-02-02T15:30:05.386Z,101736.81
2023-02-02T15:32:35.507Z,101746.00
2023-02-02T15:35:13.759Z,101739.34
2023-02-02T15:37:49.135Z,101747.72
2023-02-02T15:40:25.177Z,101742.84
2023-02-02T15:43:00.368Z,101747.75
2023-02-02T15:45:48.589Z,101748.25
2023-02-02T15:48:30.059Z,101755.59
2023-02-02T15:51:04.107Z,101760.34
2023-02-02T15:53:49.837Z,101758.72
2023-02-02T15:56:30.609Z,101766.97
2023-02-02T15:59:01.786Z,101764.69
2023-02-02T16:01:45.219Z,101771.56
2023-02-02T16:04:22.684Z,101781.91
2023-02-02T16:06:51.772Z,101783.28
2023-02-02T16:09:28.098Z,101790.00
2023-02-02T16:11:57.021Z,101786.06
2023-02-02T16:14:26.129Z,101794.31
2023-02-02T16:16:54.580Z,101797.94
2023-02-02T16:19:26.160Z,101799.09
2023-02-02T16:21:59.681Z,101803.91
2023-02-02T16:24:35.253Z,101811.19
2023-02-02T16:27:08.286Z,101814.00
2023-02-02T16:29:37.248Z,101822.06
2023-02-02T16:32:06.872Z,101819.50
2023-02-02T16:34:50.110Z,101824.53
2023-02-02T16:37:27.332Z,101811.28
2023-02-02T16:39:58.853Z,101821.00
2023-02-02T16:42:31.794Z,101829.84
2023-02-02T16:45:01.815Z,101823.03
2023-02-02T16:47:39.871Z,101832.00
2023-02-02T16:50:32.120Z,101832.06
2023-02-02T16:53:05.037Z,101836.63
2023-02-02T16:55:49.813Z,101832.41
2023-02-02T16:58:24.518Z,101838.66
2023-02-02T17:01:19.377Z,101846.59
2023-02-02T17:03:54.205Z,101849.31
2023-02-02T17:06:45.926Z,101845.78
2023-02-02T17:09:34.742Z,101844.78
2023-02-02T17:12:35.680Z,101847.34
2023-02-02T17:15:29.124Z,101854.13
2023-02-02T17:17:57.770Z,101853.28
2023-02-02T17:20:27.453Z,101850.72
2023-02-02T17:23:00.982Z,101855.88
2023-02-02T17:25:38.238Z,101854.16
2023-02-02T17:28:14.343Z,101842.75
2023-02-02T17:30:44.506Z,101846.16
2023-02-02T17:33:15.782Z,101846.22
2023-02-02T17:35:55.752Z,101850.50
2023-02-02T17:38:27.862Z,101849.94
2023-02-02T17:41:01.309Z,101858.97
2023-02-02T17:43:32.425Z,101860.81
2023-02-02T17:46:04.769Z,101852.16
2023-02-02T17:48:34.581Z,101849.63
2023-02-02T17:51:09.615Z,101855.00
2023-02-02T17:53:38.203Z,101844.53
2023-02-02T17:56:07.597Z,101848.06
2023-02-02T17:58:37.518Z,101838.56
2023-02-02T18:01:07.342Z,101839.56
2023-02-02T18:03:39.602Z,101835.28
2023-02-02T18:06:08.935Z,101833.59
2023-02-02T18:08:37.957Z,101830.16
2023-02-02T18:11:06.812Z,101829.31
2023-02-02T18:13:36.971Z,101832.47
2023-02-02T18:16:08.414Z,101832.53
2023-02-02T18:18:37.312Z,101828.25
2023-02-02T18:21:10.679Z,101831.94
2023-02-02T18:23:42.658Z,101831.16
2023-02-02T18:26:19.727Z,101836.66
2023-02-02T18:28:51.285Z,101835.94
2023-02-02T18:31:24.037Z,101839.47
2023-02-02T18:33:53.844Z,101842.91
2023-02-02T18:36:23.924Z,101836.84
2023-02-02T18:38:54.040Z,101843.91
2023-02-02T18:41:22.884Z,101837.78
2023-02-02T18:43:56.144Z,101842.09
2023-02-02T18:46:24.904Z,101840.28
2023-02-02T18:48:53.396Z,101836.75
2023-02-02T18:51:22.327Z,101839.38
2023-02-02T18:53:51.265Z,101833.16
2023-02-02T18:56:22.618Z,101829.78
2023-02-02T18:58:52.466Z,101838.59
2023-02-02T19:01:23.463Z,101840.34
2023-02-02T19:03:57.221Z,101832.53
2023-02-02T19:06:44.337Z,101843.06
2023-02-02T19:09:19.519Z,101843.06
2023-02-02T19:11:55.034Z,101829.97
2023-02-02T19:14:29.877Z,101836.78
2023-02-02T19:17:09.871Z,101834.19
2023-02-02T19:19:40.449Z,101831.50
2023-02-02T19:22:20.972Z,101831.50
2023-02-02T19:24:52.066Z,101834.91
2023-02-02T19:27:26.678Z,101832.03
2023-02-02T19:30:02.017Z,101821.38
2023-02-02T19:32:34.929Z,101813.31
2023-02-02T19:35:04.805Z,101819.47
2023-02-02T19:37:40.113Z,101816.72
2023-02-02T19:40:23.595Z,101813.28
2023-02-02T19:42:58.810Z,101807.22
2023-02-02T19:45:34.414Z,101807.16
2023-02-02T19:48:16.769Z,101807.81
2023-02-02T19:50:45.983Z,101804.13
2023-02-02T19:53:21.784Z,101806.56
2023-02-02T19:55:51.546Z,101807.50
2023-02-02T19:58:23.468Z,101805.72
2023-02-02T20:00:57.397Z,101806.59
2023-02-02T20:03:30.131Z,101801.34
2023-02-02T20:06:00.725Z,101801.25
2023-02-02T20:08:39.720Z,101794.97
2023-02-02T20:11:32.333Z,101791.38
2023-02-02T20:14:03.029Z,101777.97
2023-02-02T20:16:42.146Z,101782.19
2023-02-02T20:19:23.842Z,101778.66
2023-02-02T20:21:54.366Z,101777.66
2023-02-02T20:24:28.217Z,101774.06
2023-02-02T20:27:02.668Z,101762.47
2023-02-02T20:29:44.145Z,101764.69
2023-02-02T20:32:23.352Z,101762.66
2023-02-02T20:34:52.662Z,101760.56
2023-02-02T20:37:29.238Z,101755.69
2023-02-02T20:40:01.517Z,101755.31
2023-02-02T20:42:31.108Z,101740.16
2023-02-02T20:45:00.047Z,101741.78
2023-02-02T20:47:30.378Z,101740.69
2023-02-02T20:50:01.703Z,101734.28
2023-02-02T20:52:31.193Z,101729.84
2023-02-02T20:54:59.879Z,101721.69
2023-02-02T20:57:28.334Z,101732.16
2023-02-02T20:59:57.765Z,101738.09
2023-02-02T21:02:28.034Z,101728.06
2023-02-02T21:04:57.810Z,101718.34
2023-02-02T21:07:27.082Z,101721.75
2023-02-02T21:09:55.699Z,101707.53
2023-02-02T21:12:25.665Z,101700.38
2023-02-02T21:14:55.077Z,101695.81
2023-02-02T21:17:23.457Z,101691.31
2023-02-02T21:19:52.078Z,101690.25
2023-02-02T21:22:25.107Z,101694.63
2023-02-02T21:24:53.607Z,101694.53
2023-02-02T21:27:22.007Z,101690.03
2023-02-02T21:29:51.088Z,101686.38
2023-02-02T21:32:19.533Z,101690.50
2023-02-02T21:34:47.983Z,101681.59
2023-02-02T21:37:17.989Z,101682.34
2023-02-02T21:39:51.128Z,101686.59
2023-02-02T21:42:23.507Z,101696.31
2023-02-02T21:44:57.720Z,101685.69
2023-02-02T21:47:35.048Z,101683.88
2023-02-02T21:50:16.670Z,101676.56
2023-02-02T21:52:45.888Z,101679.94
2023-02-02T21:55:36.844Z,101675.38
2023-02-02T21:58:21.923Z,101674.47
2023-02-02T22:00:51.237Z,101674.47
2023-02-02T22:03:35.622Z,101672.53
2023-02-02T22:06:28.783Z,101659.47
2023-02-02T22:09:14.265Z,101658.41
2023-02-02T22:11:49.235Z,101644.34
2023-02-02T22:14:23.889Z,101649.53
2023-02-02T22:16:57.665Z,101638.84
2023-02-02T22:19:36.350Z,101641.47
2023-02-02T22:22:16.214Z,101642.09
2023-02-02T22:24:47.724Z,101637.53
2023-02-02T22:27:25.885Z,101624.34
2023-02-02T22:30:03.949Z,101629.44
2023-02-02T22:32:32.259Z,101625.78
2023-02-02T22:35:00.621Z,101630.19
2023-02-02T22:37:28.933Z,101621.22
2023-02-02T22:39:58.585Z,101605.19
2023-02-02T22:42:30.043Z,101608.28
2023-02-02T22:44:58.379Z,101610.63
2023-02-02T22:47:26.853Z,101609.56
2023-02-02T22:49:55.351Z,101602.91
2023-02-02T22:52:23.736Z,101595.25
2023-02-02T22:54:52.085Z,101590.13
2023-02-02T22:57:21.686Z,101585.00
2023-02-02T22:59:51.347Z,101580.19
2023-02-02T23:02:22.786Z,101571.25
2023-02-02T23:04:51.219Z,101561.41
2023-02-02T23:07:20.718Z,101562.41
2023-02-02T23:10:01.519Z,101569.47
2023-02-02T23:12:30.378Z,101557.00
2023-02-02T23:15:00.060Z,101546.41
2023-02-02T23:17:28.686Z,101527.81
2023-02-02T23:19:56.986Z,101528.91
2023-02-02T23:22:25.519Z,101526.16
2023-02-02T23:24:53.801Z,101521.00
2023-02-02T23:27:26.242Z,101505.94
2023-02-02T23:29:54.883Z,101489.47
2023-02-02T23:32:24.581Z,101494.19
2023-02-02T23:34:52.881Z,101497.81
2023-02-02T23:37:21.926Z,101514.72
2023-02-02T23:39:50.508Z,101509.47
2023-02-02T23:42:21.489Z,101489.81
2023-02-02T23:44:50.269Z,101506.59
2023-02-02T23:47:19.309Z,101496.38
2023-02-02T23:49:49.275Z,101482.31
2023-02-02T23:52:19.587Z,101477.91
2023-02-02T23:54:48.151Z,101463.06
2023-02-02T23:57:16.783Z,101456.19
2023-02-02T23:59:45.120Z,101439.47
